createdAt,value
2023-05-01T00:01:08.506Z,21.70
2023-05-01T00:04:15.016Z,24.68
2023-05-01T00:07:21.255Z,24.68
2023-05-01T00:10:27.858Z,24.35
2023-05-01T00:13:36.381Z,24.68
2023-05-01T00:16:42.937Z,22.80
2023-05-01T00:19:48.873Z,20.63
2023-05-01T00:22:55.468Z,20.90
2023-05-01T00:26:01.103Z,23.84
2023-05-01T00:29:10.296Z,22.81
2023-05-01T00:32:15.987Z,19.73
2023-05-01T00:35:22.834Z,20.02
2023-05-01T00:38:28.642Z,18.30
2023-05-01T00:41:35.032Z,18.35
2023-05-01T00:44:43.332Z,19.02
2023-05-01T00:47:50.674Z,19.14
2023-05-01T00:50:58.746Z,19.55
2023-05-01T00:54:06.417Z,20.46
2023-05-01T00:57:15.518Z,21.33
2023-05-01T01:00:25.342Z,20.91
2023-05-01T01:03:31.674Z,20.52
2023-05-01T01:06:55.800Z,20.22
2023-05-01T01:10:18.616Z,19.93
2023-05-01T01:13:35.684Z,18.81
2023-05-01T01:17:00.482Z,19.10
2023-05-01T01:20:48.309Z,22.35
2023-05-01T01:24:25.331Z,24.32
2023-05-01T01:28:08.880Z,28.92
2023-05-01T01:31:22.977Z,27.15
2023-05-01T01:34:39.160Z,27.36
2023-05-01T01:37:55.212Z,22.69
2023-05-01T01:41:14.995Z,27.83
2023-05-01T01:44:28.537Z,30.42
2023-05-01T01:47:38.487Z,27.09
2023-05-01T01:50:50.753Z,25.23
2023-05-01T01:54:03.456Z,26.44
2023-05-01T01:57:15.995Z,25.48
2023-05-01T02:00:24.644Z,23.02
2023-05-01T02:03:33.888Z,22.35
2023-05-01T02:06:49.783Z,21.25
2023-05-01T02:10:00.132Z,20.72
2023-05-01T02:13:07.870Z,20.40
2023-05-01T02:16:18.057Z,21.38
2023-05-01T02:19:24.233Z,21.27
2023-05-01T02:22:35.206Z,22.01
2023-05-01T02:25:44.046Z,22.33
2023-05-01T02:28:50.755Z,21.92
2023-05-01T02:31:56.829Z,21.68
2023-05-01T02:35:03.851Z,20.77
2023-05-01T02:38:13.137Z,18.21
2023-05-01T02:41:22.292Z,18.34
2023-05-01T02:44:32.130Z,17.22
2023-05-01T02:47:45.493Z,16.50
2023-05-01T02:50:54.119Z,16.35
2023-05-01T02:54:04.355Z,16.01
2023-05-01T02:57:10.111Z,15.98
2023-05-01T03:00:17.434Z,16.25
2023-05-01T03:03:23.178Z,16.03
2023-05-01T03:06:31.503Z,15.90
2023-05-01T03:09:40.656Z,15.38
2023-05-01T03:12:47.321Z,16.74
2023-05-01T03:15:53.320Z,18.03
2023-05-01T03:19:00.351Z,17.70
2023-05-01T03:22:05.993Z,17.62
2023-05-01T03:25:15.654Z,17.74
2023-05-01T03:28:23.681Z,17.24
2023-05-01T03:31:32.318Z,17.22
2023-05-01T03:34:38.405Z,16.31
2023-05-01T03:37:44.995Z,16.41
2023-05-01T03:40:59.538Z,17.42
2023-05-01T03:44:24.832Z,18.69
2023-05-01T03:47:30.693Z,18.09
2023-05-01T03:50:37.209Z,18.85
2023-05-01T03:53:42.804Z,20.10
2023-05-01T03:56:52.288Z,21.93
2023-05-01T03:59:59.570Z,22.22
2023-05-01T04:03:07.180Z,24.26
2023-05-01T04:06:17.526Z,26.63
2023-05-01T04:09:24.569Z,23.00
2023-05-01T04:12:32.955Z,25.90
2023-05-01T04:15:39.452Z,29.32
2023-05-01T04:18:45.101Z,24.21
2023-05-01T04:21:51.569Z,23.18
2023-05-01T04:24:57.256Z,22.97
2023-05-01T04:28:06.463Z,22.57
2023-05-01T04:31:12.183Z,20.59
2023-05-01T04:34:18.629Z,20.52
2023-05-01T04:37:24.341Z,20.52
2023-05-01T04:40:30.743Z,18.90
2023-05-01T04:43:40.042Z,18.84
2023-05-01T04:46:47.448Z,17.89
2023-05-01T04:49:53.065Z,16.06
2023-05-01T04:52:59.545Z,14.45
2023-05-01T04:56:05.280Z,14.11
2023-05-01T04:59:15.134Z,14.13
2023-05-01T05:02:20.834Z,14.33
2023-05-01T05:05:27.436Z,13.74
2023-05-01T05:08:33.029Z,13.69
2023-05-01T05:11:48.018Z,13.91
2023-05-01T05:15:02.432Z,14.02
2023-05-01T05:18:12.978Z,13.23
2023-05-01T05:21:19.089Z,14.68
2023-05-01T05:24:32.862Z,13.26
2023-05-01T05:27:39.302Z,11.93
2023-05-01T05:30:48.287Z,11.48
2023-05-01T05:33:57.824Z,11.36
2023-05-01T05:37:04.229Z,11.59
2023-05-01T05:40:15.358Z,11.50
2023-05-01T05:43:42.174Z,11.83
2023-05-01T05:46:50.861Z,11.82
2023-05-01T05:50:07.670Z,11.56
2023-05-01T05:53:14.007Z,11.54
2023-05-01T05:56:22.274Z,12.01
2023-05-01T05:59:28.019Z,12.38
2023-05-01T06:02:37.101Z,12.20
2023-05-01T06:05:43.372Z,12.18
2023-05-01T06:08:50.016Z,13.16
2023-05-01T06:11:55.829Z,12.51
2023-05-01T06:15:03.250Z,12.97
2023-05-01T06:18:12.567Z,13.02
2023-05-01T06:21:19.102Z,12.65
2023-05-01T06:24:24.865Z,11.42
2023-05-01T06:27:32.664Z,11.82
2023-05-01T06:30:38.403Z,11.64
2023-05-01T06:33:47.449Z,11.60
2023-05-01T06:37:01.266Z,11.52
2023-05-01T06:40:09.176Z,11.64
2023-05-01T06:43:15.873Z,12.93
2023-05-01T06:46:22.569Z,15.80
2023-05-01T06:49:30.919Z,15.46
2023-05-01T06:52:37.350Z,11.38
2023-05-01T06:55:44.758Z,11.40
2023-05-01T06:58:51.130Z,10.47
2023-05-01T07:01:56.960Z,8.35
2023-05-01T07:05:06.185Z,7.70
2023-05-01T07:08:11.881Z,7.37
2023-05-01T07:11:18.433Z,6.36
2023-05-01T07:14:26.674Z,6.35
2023-05-01T07:17:33.318Z,6.10
2023-05-01T07:20:41.629Z,6.12
2023-05-01T07:23:48.101Z,6.01
2023-05-01T07:26:53.671Z,5.18
2023-05-01T07:30:00.836Z,5.17
2023-05-01T07:33:07.752Z,4.98
2023-05-01T07:36:18.788Z,4.68
2023-05-01T07:39:24.352Z,4.55
2023-05-01T07:42:31.246Z,4.34
2023-05-01T07:45:36.864Z,4.12
2023-05-01T07:48:43.222Z,4.06
2023-05-01T07:51:51.851Z,4.20
2023-05-01T07:54:58.736Z,4.28
2023-05-01T07:58:04.572Z,3.98
2023-05-01T08:01:11.326Z,4.33
2023-05-01T08:04:17.427Z,4.51
2023-05-01T08:07:26.398Z,4.42
2023-05-01T08:10:32.047Z,4.16
2023-05-01T08:13:38.685Z,4.31
2023-05-01T08:16:44.287Z,4.12
2023-05-01T08:19:50.901Z,4.26
2023-05-01T08:22:59.080Z,3.96
2023-05-01T08:26:05.585Z,3.83
2023-05-01T08:29:11.301Z,4.10
2023-05-01T08:32:18.362Z,4.21
2023-05-01T08:35:24.504Z,3.87
2023-05-01T08:38:33.540Z,3.80
2023-05-01T08:41:41.749Z,3.81
2023-05-01T08:44:52.680Z,3.51
2023-05-01T08:47:58.967Z,3.86
2023-05-01T08:51:08.964Z,3.51
2023-05-01T08:54:19.611Z,3.54
2023-05-01T08:57:29.146Z,3.36
2023-05-01T09:00:37.152Z,3.47
2023-05-01T09:03:45.319Z,4.72
2023-05-01T09:06:51.492Z,3.76
2023-05-01T09:10:00.862Z,3.38
2023-05-01T09:13:10.120Z,3.41
2023-05-01T09:16:17.381Z,3.30
2023-05-01T09:19:23.315Z,3.29
2023-05-01T09:22:30.291Z,2.95
2023-05-01T09:25:38.803Z,4.19
2023-05-01T09:28:48.379Z,4.10
2023-05-01T09:31:54.096Z,3.22
2023-05-01T09:35:15.246Z,3.29
2023-05-01T09:38:23.531Z,2.85
2023-05-01T09:41:34.216Z,2.75
2023-05-01T09:44:46.149Z,2.58
2023-05-01T09:47:54.207Z,2.79
2023-05-01T09:50:59.913Z,2.97
2023-05-01T09:54:08.684Z,2.90
2023-05-01T09:57:16.890Z,3.32
2023-05-01T10:00:23.809Z,3.41
2023-05-01T10:03:30.498Z,3.21
2023-05-01T10:06:37.302Z,3.00
2023-05-01T10:09:43.749Z,3.29
2023-05-01T10:12:52.998Z,3.18
2023-05-01T10:16:01.025Z,3.08
2023-05-01T10:19:09.566Z,3.35
2023-05-01T10:22:15.401Z,3.16
2023-05-01T10:25:25.369Z,2.95
2023-05-01T10:28:34.835Z,3.23
2023-05-01T10:31:42.679Z,3.14
2023-05-01T10:34:58.306Z,2.95
2023-05-01T10:38:09.598Z,3.02
2023-05-01T10:41:16.427Z,3.25
2023-05-01T10:44:28.769Z,3.11
2023-05-01T10:47:50.113Z,2.95
2023-05-01T10:51:13.691Z,3.04
2023-05-01T10:54:27.859Z,3.17
2023-05-01T10:57:47.745Z,3.65
2023-05-01T11:01:34.999Z,3.68
2023-05-01T11:04:54.537Z,3.66
2023-05-01T11:08:33.321Z,3.31
2023-05-01T11:11:54.783Z,3.55
2023-05-01T11:15:12.953Z,3.25
2023-05-01T11:18:51.153Z,3.34
2023-05-01T11:21:58.122Z,3.66
2023-05-01T11:25:04.839Z,3.60
2023-05-01T11:28:12.972Z,3.42
2023-05-01T11:31:21.899Z,3.11
2023-05-01T11:34:31.049Z,3.49
2023-05-01T11:37:45.112Z,3.25
2023-05-01T11:41:01.242Z,3.51
2023-05-01T11:44:07.957Z,3.47
2023-05-01T11:47:13.857Z,3.38
2023-05-01T11:50:24.409Z,3.55
2023-05-01T11:53:30.300Z,3.55
2023-05-01T11:56:41.262Z,3.82
2023-05-01T11:59:50.443Z,3.52
2023-05-01T12:03:02.502Z,3.45
2023-05-01T12:06:13.639Z,3.49
2023-05-01T12:09:23.634Z,3.65
2023-05-01T12:12:29.470Z,3.45
2023-05-01T12:15:41.117Z,3.28
2023-05-01T12:18:47.278Z,3.70
2023-05-01T12:22:09.147Z,3.53
2023-05-01T12:25:14.692Z,3.37
2023-05-01T12:28:23.386Z,3.30
2023-05-01T12:31:30.623Z,3.49
2023-05-01T12:34:37.623Z,3.54
2023-05-01T12:37:45.912Z,3.92
2023-05-01T12:40:58.381Z,3.59
2023-05-01T12:44:04.287Z,3.76
2023-05-01T12:47:13.291Z,3.09
2023-05-01T12:50:19.395Z,3.59
2023-05-01T12:53:30.860Z,3.56
2023-05-01T12:56:36.491Z,3.35
2023-05-01T12:59:45.621Z,3.40
2023-05-01T13:02:52.036Z,4.06
2023-05-01T13:06:00.656Z,3.63
2023-05-01T13:09:17.125Z,3.55
2023-05-01T13:12:24.619Z,3.51
2023-05-01T13:15:30.277Z,4.36
2023-05-01T13:18:39.462Z,3.42
2023-05-01T13:21:52.469Z,3.55
2023-05-01T13:25:02.632Z,3.91
2023-05-01T13:28:09.821Z,3.63
2023-05-01T13:31:17.921Z,3.43
2023-05-01T13:34:32.085Z,3.54
2023-05-01T13:37:38.959Z,3.59
2023-05-01T13:40:47.184Z,3.57
2023-05-01T13:43:56.346Z,3.43
2023-05-01T13:47:06.260Z,3.73
2023-05-01T13:50:16.396Z,3.89
2023-05-01T13:53:22.127Z,3.52
2023-05-01T13:56:32.538Z,3.69
2023-05-01T13:59:44.264Z,4.01
2023-05-01T14:02:54.147Z,3.55
2023-05-01T14:05:59.963Z,3.41
2023-05-01T14:09:08.344Z,3.19
2023-05-01T14:12:18.247Z,3.46
2023-05-01T14:15:25.411Z,3.48
2023-05-01T14:18:31.028Z,3.26
2023-05-01T14:21:44.652Z,3.33
2023-05-01T14:24:50.275Z,3.55
2023-05-01T14:28:01.792Z,4.09
2023-05-01T14:31:07.681Z,3.89
2023-05-01T14:34:21.756Z,3.59
2023-05-01T14:37:27.471Z,3.52
2023-05-01T14:40:37.671Z,3.73
2023-05-01T14:43:47.847Z,3.58
2023-05-01T14:46:54.405Z,3.71
2023-05-01T14:49:59.972Z,3.41
2023-05-01T14:53:06.747Z,3.49
2023-05-01T14:56:12.442Z,3.49
2023-05-01T14:59:23.106Z,3.32
2023-05-01T15:02:28.894Z,3.89
2023-05-01T15:05:38.618Z,3.77
2023-05-01T15:08:44.600Z,3.74
2023-05-01T15:11:51.253Z,3.50
2023-05-01T15:14:59.745Z,3.50
2023-05-01T15:18:06.855Z,3.32
2023-05-01T15:21:12.839Z,3.50
2023-05-01T15:24:19.826Z,3.52
2023-05-01T15:27:25.493Z,3.56
2023-05-01T15:30:35.366Z,3.63
2023-05-01T15:33:41.233Z,3.67
2023-05-01T15:36:47.676Z,3.47
2023-05-01T15:39:54.063Z,3.77
2023-05-01T15:43:01.507Z,3.90
2023-05-01T15:46:11.741Z,3.73
2023-05-01T15:49:18.947Z,4.19
2023-05-01T15:52:24.620Z,4.39
2023-05-01T15:55:32.623Z,4.15
2023-05-01T15:58:38.220Z,4.24
2023-05-01T16:01:47.403Z,4.13
2023-05-01T16:04:53.161Z,4.20
2023-05-01T16:08:05.569Z,4.85
2023-05-01T16:11:13.807Z,4.98
2023-05-01T16:14:21.306Z,3.82
2023-05-01T16:17:29.589Z,3.74
2023-05-01T16:20:46.005Z,4.11
2023-05-01T16:23:53.144Z,3.62
2023-05-01T16:26:59.662Z,3.82
2023-05-01T16:30:09.651Z,4.29
2023-05-01T16:33:23.501Z,6.79
2023-05-01T16:36:29.376Z,6.55
2023-05-01T16:39:40.935Z,5.72
2023-05-01T16:42:52.352Z,5.31
2023-05-01T16:46:01.674Z,4.80
2023-05-01T16:49:13.804Z,4.65
2023-05-01T16:52:20.323Z,5.17
2023-05-01T16:55:28.220Z,5.17
2023-05-01T16:58:34.806Z,5.03
2023-05-01T17:01:42.666Z,4.88
2023-05-01T17:04:52.151Z,4.50
2023-05-01T17:07:57.867Z,4.61
2023-05-01T17:11:15.784Z,5.27
2023-05-01T17:14:21.718Z,5.54
2023-05-01T17:17:28.174Z,4.33
2023-05-01T17:20:38.316Z,4.22
2023-05-01T17:23:44.859Z,4.42
2023-05-01T17:26:50.409Z,4.58
2023-05-01T17:29:57.616Z,4.66
2023-05-01T17:33:04.004Z,4.68
2023-05-01T17:36:13.420Z,4.82
2023-05-01T17:39:22.021Z,4.84
2023-05-01T17:42:28.542Z,6.12
2023-05-01T17:45:34.471Z,9.36
2023-05-01T17:48:40.899Z,9.95
2023-05-01T17:51:50.665Z,6.61
2023-05-01T17:54:57.541Z,8.05
2023-05-01T17:58:03.128Z,8.89
2023-05-01T18:01:10.505Z,8.66
2023-05-01T18:04:18.793Z,9.54
2023-05-01T18:07:30.694Z,7.31
2023-05-01T18:10:37.492Z,7.20
2023-05-01T18:13:47.554Z,8.79
2023-05-01T18:16:53.226Z,7.88
2023-05-01T18:20:00.918Z,8.88
2023-05-01T18:23:09.499Z,16.71
2023-05-01T18:26:19.905Z,10.88
2023-05-01T18:29:25.609Z,7.01
2023-05-01T18:32:46.242Z,6.69
2023-05-01T18:35:53.386Z,6.33
2023-05-01T18:39:02.417Z,7.22
2023-05-01T18:42:08.880Z,6.76
2023-05-01T18:45:15.287Z,6.61
2023-05-01T18:48:21.473Z,6.63
2023-05-01T18:51:27.917Z,6.72
2023-05-01T18:54:36.235Z,6.70
2023-05-01T18:57:44.335Z,7.27
2023-05-01T19:00:50.209Z,8.15
2023-05-01T19:03:59.664Z,7.93
2023-05-01T19:07:05.409Z,7.19
2023-05-01T19:10:14.968Z,9.10
2023-05-01T19:13:20.921Z,7.77
2023-05-01T19:16:27.854Z,7.08
2023-05-01T19:19:34.995Z,9.09
2023-05-01T19:22:41.434Z,6.82
2023-05-01T19:25:49.600Z,7.12
2023-05-01T19:28:56.131Z,8.47
2023-05-01T19:32:02.685Z,9.12
2023-05-01T19:35:11.821Z,8.08
2023-05-01T19:38:17.634Z,7.67
2023-05-01T19:41:26.655Z,8.59
2023-05-01T19:44:32.402Z,9.59
2023-05-01T19:47:39.139Z,8.70
2023-05-01T19:50:51.198Z,8.02
2023-05-01T19:53:57.834Z,8.02
2023-05-01T19:57:06.061Z,7.47
2023-05-01T20:00:17.332Z,7.33
2023-05-01T20:03:23.096Z,7.10
2023-05-01T20:06:32.614Z,6.76
2023-05-01T20:09:38.246Z,6.78
2023-05-01T20:12:47.179Z,9.02
2023-05-01T20:15:52.800Z,7.88
2023-05-01T20:18:59.455Z,7.39
2023-05-01T20:22:07.968Z,7.05
2023-05-01T20:25:14.532Z,8.08
2023-05-01T20:28:23.664Z,8.13
2023-05-01T20:31:30.422Z,7.77
2023-05-01T20:34:36.155Z,8.18
2023-05-01T20:37:42.583Z,8.16
2023-05-01T20:40:48.252Z,8.60
2023-05-01T20:43:57.331Z,8.77
2023-05-01T20:47:02.921Z,8.32
2023-05-01T20:50:10.664Z,8.38
2023-05-01T20:53:16.274Z,8.54
2023-05-01T20:56:23.973Z,8.60
2023-05-01T20:59:32.238Z,8.08
2023-05-01T21:02:41.212Z,8.66
2023-05-01T21:05:46.895Z,8.74
2023-05-01T21:08:54.091Z,8.98
2023-05-01T21:11:59.803Z,9.44
2023-05-01T21:15:11.384Z,9.51
2023-05-01T21:18:20.632Z,9.61
2023-05-01T21:21:27.968Z,10.27
2023-05-01T21:24:35.456Z,9.90
2023-05-01T21:27:44.582Z,9.90
2023-05-01T21:30:53.428Z,10.70
2023-05-01T21:34:05.590Z,10.60
2023-05-01T21:37:14.079Z,10.61
2023-05-01T21:40:23.042Z,10.77
2023-05-01T21:43:28.967Z,11.00
2023-05-01T21:46:41.499Z,11.47
2023-05-01T21:49:47.087Z,11.76
2023-05-01T21:52:55.084Z,11.70
2023-05-01T21:56:00.748Z,11.54
2023-05-01T21:59:08.998Z,12.80
2023-05-01T22:02:20.207Z,12.72
2023-05-01T22:05:29.383Z,13.48
2023-05-01T22:08:34.966Z,13.69
2023-05-01T22:11:41.641Z,13.47
2023-05-01T22:14:49.422Z,13.64
2023-05-01T22:17:59.906Z,13.78
2023-05-01T22:21:05.702Z,13.78
2023-05-01T22:24:12.093Z,13.80
2023-05-01T22:27:18.951Z,14.06
2023-05-01T22:30:27.303Z,13.68
2023-05-01T22:33:35.587Z,13.51
2023-05-01T22:36:42.004Z,13.45
2023-05-01T22:39:47.657Z,14.01
2023-05-01T22:42:53.980Z,13.59
2023-05-01T22:45:59.745Z,13.85
2023-05-01T22:49:09.488Z,13.76
2023-05-01T22:52:15.355Z,13.76
2023-05-01T22:55:24.601Z,13.36
2023-05-01T22:58:30.286Z,13.19
2023-05-01T23:01:36.823Z,13.70
2023-05-01T23:04:45.186Z,13.52
2023-05-01T23:07:51.864Z,13.30
2023-05-01T23:10:57.478Z,13.55
2023-05-01T23:14:06.298Z,13.52
2023-05-01T23:17:11.962Z,13.51
2023-05-01T23:20:25.552Z,13.94
2023-05-01T23:23:33.683Z,13.99
2023-05-01T23:26:44.123Z,13.72
2023-05-01T23:29:58.327Z,13.43
2023-05-01T23:33:06.277Z,13.98
2023-05-01T23:36:14.802Z,14.52
2023-05-01T23:39:21.325Z,14.90
2023-05-01T23:42:28.418Z,14.82
2023-05-01T23:45:35.285Z,15.29
2023-05-01T23:48:41.289Z,15.53
2023-05-01T23:51:50.536Z,15.72
2023-05-01T23:54:56.121Z,16.11
2023-05-01T23:58:02.538Z,16.44
